Time;durP1;ratioP1;P1;durP2;ratioP2;P2;SDS_P1;SDS_P2;PMS_P1;PMS_P2;Temp;Humidity;BMP_temperature;BMP_pressure;BME280_temperature;BME280_humidity;BME280_pressure;Samples;Min_cycle;Max_cycle;Signal;HPM_P1;HPM_P2
2021/12/15 00:01:41;;;;;;;;;27.75;24.00;;;;;9.70;100.00;102718.91;5010760;28;10292;-71
2021/12/15 00:04:15;;;;;;;;;31.25;24.50;;;;;9.71;100.00;102726.03;5013280;28;10428;-71
2021/12/15 00:06:46;;;;;;;;;29.00;26.75;;;;;9.71;100.00;102715.22;5011158;28;10455;-71
2021/12/15 00:09:15;;;;;;;;;32.25;29.25;;;;;9.70;100.00;102718.91;4991978;28;10430;-71
2021/12/15 00:11:46;;;;;;;;;28.75;24.25;;;;;9.72;100.00;102715.09;4994637;28;11465;-71
2021/12/15 00:14:21;;;;;;;;;30.50;28.50;;;;;9.69;100.00;102709.97;5014644;28;10536;-71
2021/12/15 00:16:52;;;;;;;;;25.50;22.00;;;;;9.69;100.00;102718.06;5009078;28;10378;-71
2021/12/15 00:19:24;;;;;;;;;34.75;27.75;;;;;9.69;100.00;102712.66;4992047;28;10288;-71
2021/12/15 00:21:51;;;;;;;;;33.25;27.50;;;;;9.68;100.00;102720.91;4993701;28;10478;-71
2021/12/15 00:24:18;;;;;;;;;26.25;21.25;;;;;9.69;100.00;102715.38;5007111;28;10558;-71
2021/12/15 00:26:45;;;;;;;;;31.25;30.50;;;;;9.66;100.00;102712.91;4993795;28;10265;-70
2021/12/15 00:29:12;;;;;;;;;33.50;23.75;;;;;9.65;100.00;102716.59;5009935;28;10725;-71
2021/12/15 00:31:39;;;;;;;;;31.00;27.75;;;;;9.68;100.00;102715.50;5002070;28;10465;-71
2021/12/15 00:34:07;;;;;;;;;30.75;24.50;;;;;9.72;100.00;102719.63;5009217;28;10402;-71
2021/12/15 00:36:35;;;;;;;;;23.50;22.50;;;;;9.70;100.00;102718.91;5010813;28;10182;-70
2021/12/15 00:39:05;;;;;;;;;23.50;17.75;;;;;9.73;100.00;102718.66;5009763;28;10180;-70
2021/12/15 00:41:38;;;;;;;;;32.00;27.00;;;;;9.70;100.00;102717.06;5013791;28;10254;-70
2021/12/15 00:44:42;;;;;;;;;23.25;18.00;;;;;9.70;100.00;102713.50;4994001;28;10531;-71
2021/12/15 00:47:12;;;;;;;;;25.00;20.50;;;;;9.72;100.00;102711.53;4961888;28;10269;-69
2021/12/15 00:49:39;;;;;;;;;21.00;20.50;;;;;9.72;100.00;102711.53;5009569;28;10425;-69
2021/12/15 00:52:07;;;;;;;;;21.50;20.25;;;;;9.74;100.00;102717.66;5012332;28;10248;-69
2021/12/15 00:54:35;;;;;;;;;29.00;23.75;;;;;9.72;100.00;102714.22;5021456;28;10350;-69
2021/12/15 00:57:02;;;;;;;;;34.50;27.25;;;;;9.70;100.00;102714.38;5010852;28;10294;-69
2021/12/15 00:59:29;;;;;;;;;25.00;25.00;;;;;9.71;100.00;102718.78;5008712;28;10524;-69
2021/12/15 01:01:56;;;;;;;;;25.25;24.00;;;;;9.71;100.00;102715.22;5009789;28;10484;-69
2021/12/15 01:04:24;;;;;;;;;39.00;32.25;;;;;9.69;100.00;102709.09;5008996;28;10263;-68
2021/12/15 01:06:55;;;;;;;;;35.00;31.25;;;;;9.68;100.00;102716.34;5005613;28;10500;-68
2021/12/15 01:09:30;;;;;;;;;38.25;26.75;;;;;9.70;100.00;102719.78;4990537;28;10609;-69
2021/12/15 01:19:55;;;;;;;;;30.25;27.75;;;;;9.70;100.00;102708.09;4989337;28;10314;-69
2021/12/15 01:22:35;;;;;;;;;29.50;23.50;;;;;9.69;100.00;102719.91;4996965;28;10796;-71
2021/12/15 01:25:16;;;;;;;;;26.50;25.00;;;;;9.67;100.00;102713.78;5008887;28;10591;-69
2021/12/15 01:27:43;;;;;;;;;30.00;25.00;;;;;9.65;100.00;102721.16;5014847;28;10394;-69
2021/12/15 01:30:14;;;;;;;;;29.50;28.50;;;;;9.66;100.00;102717.47;5024993;28;10383;-69
2021/12/15 01:32:41;;;;;;;;;34.25;31.50;;;;;9.66;100.00;102723.72;5015043;28;10459;-69
2021/12/15 01:35:09;;;;;;;;;31.75;26.75;;;;;9.67;100.00;102716.50;5019564;28;10523;-71
2021/12/15 01:37:36;;;;;;;;;36.75;33.25;;;;;9.65;100.00;102721.16;5012751;28;11426;-70
2021/12/15 01:40:05;;;;;;;;;38.25;34.50;;;;;9.67;100.00;102727.31;5019650;28;11323;-68
2021/12/15 01:42:34;;;;;;;;;34.00;29.50;;;;;9.67;100.00;102724.59;5016348;28;10644;-69
2021/12/15 01:47:45;;;;;;;;;29.75;27.50;;;;;9.65;100.00;102723.84;5020585;28;10300;-68
2021/12/15 01:50:13;;;;;;;;;40.75;33.00;;;;;9.65;100.00;102722.00;5013521;28;10287;-68
2021/12/15 01:52:41;;;;;;;;;40.50;32.00;;;;;9.66;100.00;102723.72;5025642;28;10445;-69
2021/12/15 01:55:13;;;;;;;;;33.50;28.00;;;;;9.63;100.00;102733.97;5010105;28;10447;-68
2021/12/15 01:57:41;;;;;;;;;41.50;33.25;;;;;9.62;100.00;102735.81;5019707;28;10454;-69
2021/12/15 02:00:14;;;;;;;;;37.25;35.25;;;;;9.65;100.00;102737.38;5020826;28;10664;-68
2021/12/15 02:02:44;;;;;;;;;29.75;29.00;;;;;9.62;100.00;102738.50;5017077;28;10675;-71
2021/12/15 02:05:11;;;;;;;;;38.75;33.50;;;;;9.65;100.00;102734.69;5019289;28;10631;-70
2021/12/15 02:07:41;;;;;;;;;30.25;27.00;;;;;9.64;100.00;102738.38;5022579;28;10724;-68
2021/12/15 02:10:08;;;;;;;;;25.00;21.75;;;;;9.65;100.00;102742.78;5027602;28;10448;-69
2021/12/15 02:12:55;;;;;;;;;41.00;27.75;;;;;9.63;100.00;102751.03;4996768;28;10376;-69
2021/12/15 02:15:26;;;;;;;;;31.25;27.00;;;;;9.64;100.00;102741.06;4995060;28;10460;-68
2021/12/15 02:17:53;;;;;;;;;38.00;34.25;;;;;9.63;100.00;102740.22;5005729;28;10460;-69
2021/12/15 02:20:36;;;;;;;;;32.50;30.50;;;;;9.63;100.00;102745.63;5016257;28;10596;-70
2021/12/15 02:23:07;;;;;;;;;26.25;24.00;;;;;9.65;100.00;102749.06;5014164;28;10632;-69
2021/12/15 02:25:34;;;;;;;;;30.50;27.75;;;;;9.64;100.00;102749.19;4998292;28;11674;-69
2021/12/15 02:28:02;;;;;;;;;30.50;24.75;;;;;9.65;100.00;102751.75;5014071;28;10426;-68
2021/12/15 02:38:39;;;;;;;;;25.25;21.50;;;;;9.64;100.00;102750.06;5015012;28;10472;-68
2021/12/15 02:41:11;;;;;;;;;30.75;27.25;;;;;9.65;100.00;102748.19;5022208;28;10354;-68
2021/12/15 02:43:39;;;;;;;;;29.50;23.75;;;;;9.63;100.00;102750.19;5020228;28;10364;-71
2021/12/15 02:46:06;;;;;;;;;26.00;19.50;;;;;9.65;100.00;102754.47;5021962;28;10181;-69
2021/12/15 02:48:33;;;;;;;;;34.75;29.25;;;;;9.64;100.00;102750.06;5023171;28;10109;-69
2021/12/15 02:51:00;;;;;;;;;21.75;18.50;;;;;9.64;100.00;102751.91;5013028;28;10390;-69
2021/12/15 02:53:27;;;;;;;;;31.75;27.25;;;;;9.64;100.00;102751.91;5022083;28;10233;-70
2021/12/15 02:55:54;;;;;;;;;28.00;23.25;;;;;9.66;100.00;102750.75;5020505;28;11124;-70
2021/12/15 02:58:21;;;;;;;;;26.75;23.75;;;;;9.67;100.00;102754.34;5016538;28;10447;-70
2021/12/15 03:01:01;;;;;;;;;21.50;21.50;;;;;9.67;100.00;102747.09;5014276;28;10207;-69
2021/12/15 03:06:23;;;;;;;;;26.25;22.25;;;;;9.65;100.00;102754.47;5004016;28;10669;-70
2021/12/15 03:09:05;;;;;;;;;24.75;21.25;;;;;9.64;100.00;102755.47;5020265;28;10398;-69
2021/12/15 03:17:03;;;;;;;;;29.50;24.75;;;;;9.66;100.00;102753.47;5010859;28;10592;-70
2021/12/15 03:19:31;;;;;;;;;21.00;19.75;;;;;9.67;100.00;102754.34;5019130;28;10436;-69
2021/12/15 03:21:57;;;;;;;;;27.00;24.00;;;;;9.65;100.00;102754.47;5024041;28;10264;-70
2021/12/15 03:24:25;;;;;;;;;26.75;23.25;;;;;9.64;100.00;102750.06;5012075;28;10191;-69
2021/12/15 03:27:18;;;;;;;;;32.50;28.50;;;;;9.66;100.00;102747.22;5010762;28;10546;-70
2021/12/15 03:35:33;;;;;;;;;31.50;30.50;;;;;9.65;100.00;102753.59;5011957;28;10514;-69
2021/12/15 03:38:00;;;;;;;;;32.50;25.75;;;;;9.65;100.00;102759.03;5019299;28;10602;-69
2021/12/15 03:40:42;;;;;;;;;40.75;27.75;;;;;9.65;100.00;102756.31;5025445;28;10637;-69
2021/12/15 03:43:12;;;;;;;;;35.25;29.25;;;;;9.66;100.00;102753.47;5004727;28;11432;-70
2021/12/15 03:45:43;;;;;;;;;26.25;24.00;;;;;9.67;100.00;102763.31;5011174;28;10728;-70
2021/12/15 03:48:15;;;;;;;;;23.00;23.00;;;;;9.69;100.00;102768.59;5017585;28;10555;-70
2021/12/15 03:50:43;;;;;;;;;38.00;26.50;;;;;9.67;100.00;102759.78;5014645;28;10266;-69
2021/12/15 03:53:13;;;;;;;;;28.25;24.25;;;;;9.69;100.00;102765.91;5017819;28;10381;-70
2021/12/15 03:55:41;;;;;;;;;33.75;24.25;;;;;9.70;100.00;102764.91;5016021;28;10526;-69
2021/12/15 03:58:12;;;;;;;;;33.00;30.00;;;;;9.69;100.00;102768.59;5009743;28;10374;-71
2021/12/15 04:00:54;;;;;;;;;19.25;19.25;;;;;9.73;100.00;102761.91;5022834;28;10463;-69
2021/12/15 04:03:27;;;;;;;;;33.75;27.00;;;;;9.69;100.00;102768.59;5013880;28;10162;-71
2021/12/15 04:05:56;;;;;;;;;26.50;25.75;;;;;9.71;100.00;102772.03;5015539;28;10279;-70
2021/12/15 04:08:23;;;;;;;;;31.25;25.50;;;;;9.72;100.00;102766.47;5011666;28;10283;-70
2021/12/15 04:10:50;;;;;;;;;29.25;23.00;;;;;9.70;100.00;102773.00;5010446;28;11126;-70
2021/12/15 04:13:17;;;;;;;;;29.50;23.75;;;;;9.72;100.00;102768.31;5001261;28;10256;-69
2021/12/15 04:15:48;;;;;;;;;32.25;26.50;;;;;9.72;100.00;102768.31;5016996;28;10346;-69
2021/12/15 04:18:15;;;;;;;;;31.00;27.00;;;;;9.72;100.00;102765.63;5021905;28;10325;-71
2021/12/15 04:20:41;;;;;;;;;27.50;26.25;;;;;9.72;100.00;102773.72;5025534;28;10585;-70
2021/12/15 04:23:11;;;;;;;;;30.25;27.00;;;;;9.71;100.00;102772.88;5011712;28;10369;-71
2021/12/15 04:25:40;;;;;;;;;24.25;22.50;;;;;9.72;100.00;102782.69;5008542;28;10543;-69
2021/12/15 04:28:34;;;;;;;;;36.50;31.75;;;;;9.71;100.00;102772.03;5013747;28;10367;-69
2021/12/15 04:31:09;;;;;;;;;32.25;28.50;;;;;9.72;100.00;102771.88;5001404;28;10463;-70
2021/12/15 04:33:55;;;;;;;;;29.75;25.25;;;;;9.73;100.00;102770.88;5014321;28;10495;-70
2021/12/15 04:36:26;;;;;;;;;24.75;24.50;;;;;9.72;100.00;102779.16;5010598;28;10336;-70
2021/12/15 04:38:56;;;;;;;;;21.75;19.50;;;;;9.73;100.00;102787.13;5011619;28;10492;-71
2021/12/15 04:41:24;;;;;;;;;30.50;25.50;;;;;9.75;100.00;102781.56;5022251;28;10060;-71
2021/12/15 04:44:10;;;;;;;;;27.25;23.00;;;;;9.75;100.00;102781.56;5018530;28;11057;-70
2021/12/15 04:47:00;;;;;;;;;21.75;21.00;;;;;9.75;100.00;102776.16;5018022;28;10334;-69
2021/12/15 04:49:36;;;;;;;;;27.25;23.25;;;;;9.76;100.00;102773.31;5015202;28;10058;-69
2021/12/15 04:52:04;;;;;;;;;24.00;18.75;;;;;9.75;100.00;102784.28;5014113;28;10285;-69
2021/12/15 04:54:31;;;;;;;;;30.25;27.00;;;;;9.75;100.00;102784.28;5018263;28;10194;-69
2021/12/15 04:56:57;;;;;;;;;28.50;27.25;;;;;9.74;100.00;102785.28;5010668;28;10946;-69
2021/12/15 04:59:24;;;;;;;;;31.25;24.00;;;;;9.73;100.00;102775.44;5017583;28;10603;-70
2021/12/15 05:01:51;;;;;;;;;27.50;20.25;;;;;9.75;100.00;102786.97;5011540;28;10308;-70
2021/12/15 05:04:17;;;;;;;;;35.50;31.75;;;;;9.75;100.00;102781.56;5018620;28;12839;-70
2021/12/15 05:06:44;;;;;;;;;31.00;25.75;;;;;9.73;100.00;102788.97;5015313;28;10605;-70
2021/12/15 05:09:11;;;;;;;;;27.75;23.00;;;;;9.73;100.00;102784.41;5015382;28;11156;-70
2021/12/15 05:11:38;;;;;;;;;29.50;26.50;;;;;9.75;100.00;102793.25;5015936;28;10350;-70
2021/12/15 05:14:05;;;;;;;;;27.00;24.50;;;;;9.78;100.00;102795.69;5017633;28;10419;-69
2021/12/15 05:16:32;;;;;;;;;27.50;20.00;;;;;9.79;100.00;102791.13;5015344;28;10327;-72
2021/12/15 05:18:59;;;;;;;;;17.25;17.25;;;;;9.80;100.00;102792.84;5025136;28;10075;-70
2021/12/15 05:21:26;;;;;;;;;28.00;23.75;;;;;9.75;100.00;102793.25;5014619;28;10196;-69
2021/12/15 05:23:59;;;;;;;;;28.75;23.50;;;;;9.77;100.00;102791.25;5014021;28;10207;-70
2021/12/15 05:26:29;;;;;;;;;29.25;27.00;;;;;9.78;100.00;102786.72;5022503;28;10333;-69
2021/12/15 05:28:56;;;;;;;;;35.00;28.00;;;;;9.78;100.00;102792.13;5024134;28;10548;-69
2021/12/15 05:31:22;;;;;;;;;19.75;17.75;;;;;9.78;100.00;102792.97;5012868;28;10376;-70
2021/12/15 05:33:49;;;;;;;;;21.25;16.50;;;;;9.79;100.00;102788.41;5023033;28;10008;-70
2021/12/15 05:36:16;;;;;;;;;24.25;22.50;;;;;9.79;100.00;102789.28;5007973;28;10174;-70
2021/12/15 05:38:42;;;;;;;;;21.50;20.00;;;;;9.77;100.00;102787.69;5015527;28;11291;-69
2021/12/15 05:41:09;;;;;;;;;24.00;21.50;;;;;9.80;100.00;102787.41;5029627;28;9992;-71
2021/12/15 05:43:36;;;;;;;;;23.50;17.00;;;;;9.79;100.00;102794.69;4991822;28;10201;-70
2021/12/15 05:46:03;;;;;;;;;21.00;19.00;;;;;9.77;100.00;102795.81;4990241;28;10015;-69
2021/12/15 05:48:29;;;;;;;;;26.00;23.00;;;;;9.79;100.00;102805.50;4992555;28;10160;-70
2021/12/15 05:50:56;;;;;;;;;20.75;18.00;;;;;9.77;100.00;102806.63;4989944;28;10438;-67
2021/12/15 05:53:23;;;;;;;;;18.75;18.50;;;;;9.77;100.00;102799.38;4991506;28;10330;-70
2021/12/15 05:55:51;;;;;;;;;21.25;20.50;;;;;9.75;100.00;102803.22;4989967;28;10366;-68
2021/12/15 05:58:18;;;;;;;;;31.00;25.75;;;;;9.75;100.00;102798.66;5012593;28;10029;-68
2021/12/15 06:00:45;;;;;;;;;27.75;21.75;;;;;9.76;100.00;102807.63;5024313;28;10242;-67
2021/12/15 06:03:14;;;;;;;;;34.00;27.00;;;;;9.76;100.00;102794.09;5002568;28;10292;-67
2021/12/15 06:05:40;;;;;;;;;26.50;21.50;;;;;9.72;100.00;102807.03;5008763;28;10544;-67
2021/12/15 06:08:07;;;;;;;;;24.25;23.00;;;;;9.74;100.00;102805.06;5017041;28;10167;-68
2021/12/15 06:10:35;;;;;;;;;28.25;26.00;;;;;9.75;100.00;102803.22;5020153;28;10388;-69
2021/12/15 06:13:05;;;;;;;;;29.25;26.25;;;;;9.77;100.00;102806.63;5016689;28;10295;-67
2021/12/15 06:15:32;;;;;;;;;24.50;21.75;;;;;9.75;100.00;102814.88;5011605;28;10522;-67
2021/12/15 06:18:05;;;;;;;;;18.00;14.75;;;;;9.79;100.00;102812.75;5014552;28;10244;-68
2021/12/15 06:20:33;;;;;;;;;27.50;21.25;;;;;9.79;100.00;102813.63;5024625;28;9944;-68
2021/12/15 06:23:00;;;;;;;;;22.50;19.00;;;;;9.77;100.00;102815.59;4997135;28;10201;-68
2021/12/15 06:25:28;;;;;;;;;33.50;29.25;;;;;9.77;100.00;102820.16;4998316;28;10173;-67
2021/12/15 06:27:55;;;;;;;;;25.75;23.25;;;;;9.77;100.00;102815.59;5011561;28;10538;-68
2021/12/15 06:30:21;;;;;;;;;28.00;26.00;;;;;9.77;100.00;102817.44;5013013;28;10213;-69
2021/12/15 06:32:48;;;;;;;;;25.00;19.50;;;;;9.78;100.00;102820.03;5012699;28;10397;-68
2021/12/15 06:35:15;;;;;;;;;22.50;19.50;;;;;9.79;100.00;102818.16;5016596;28;10247;-68
2021/12/15 06:37:41;;;;;;;;;30.50;26.00;;;;;9.77;100.00;102820.16;5017235;28;10230;-69
2021/12/15 06:40:09;;;;;;;;;31.25;27.50;;;;;9.75;100.00;102820.28;5011943;28;10632;-69
2021/12/15 06:42:38;;;;;;;;;23.00;22.25;;;;;9.77;100.00;102814.75;5016932;28;10561;-68
2021/12/15 06:45:07;;;;;;;;;37.25;30.25;;;;;9.74;100.00;102821.28;5026505;28;10347;-70
2021/12/15 06:57:16;;;;;;;;;39.50;30.75;;;;;9.74;100.00;102828.53;5015765;28;10669;-69
2021/12/15 06:57:32;;;;;;;;;31.50;29.50;;;;;9.76;100.00;102834.69;5011108;28;10536;-70
2021/12/15 06:58:57;;;;;;;;;21.25;19.25;;;;;9.77;100.00;102841.78;5019887;28;10412;-72
2021/12/15 07:01:24;;;;;;;;;25.00;22.00;;;;;9.76;100.00;102834.69;5023609;28;10354;-71
2021/12/15 07:03:51;;;;;;;;;23.00;22.50;;;;;9.75;100.00;102849.19;5013983;28;10359;-69
2021/12/15 07:06:19;;;;;;;;;25.50;21.00;;;;;9.77;100.00;102844.50;5030908;28;10344;-70
2021/12/15 07:08:46;;;;;;;;;22.50;22.25;;;;;9.75;100.00;102843.78;5020303;28;10303;-69
2021/12/15 07:11:13;;;;;;;;;23.00;20.50;;;;;9.75;100.00;102844.63;5011043;28;10189;-70
2021/12/15 07:13:39;;;;;;;;;25.50;23.75;;;;;9.76;100.00;102843.66;5013545;28;10551;-70
2021/12/15 07:16:08;;;;;;;;;22.75;19.75;;;;;9.77;100.00;102848.06;5021209;28;10468;-70
2021/12/15 07:18:53;;;;;;;;;28.00;23.00;;;;;9.76;100.00;102846.34;5030554;28;9959;-71
2021/12/15 07:21:23;;;;;;;;;29.75;25.00;;;;;9.76;100.00;102850.91;5013447;28;11327;-69
2021/12/15 07:23:53;;;;;;;;;25.25;19.25;;;;;9.76;100.00;102851.75;5016782;28;10611;-70
2021/12/15 07:26:20;;;;;;;;;36.25;30.25;;;;;9.76;100.00;102842.78;5013610;28;10207;-70
2021/12/15 07:28:47;;;;;;;;;24.25;21.50;;;;;9.77;100.00;102853.47;5016003;28;10585;-70
2021/12/15 07:31:15;;;;;;;;;23.50;20.00;;;;;9.79;100.00;102848.78;5011735;28;10256;-70
2021/12/15 07:33:41;;;;;;;;;33.75;27.25;;;;;9.77;100.00;102850.78;5009886;28;10281;-70
2021/12/15 07:36:08;;;;;;;;;28.25;23.75;;;;;9.79;100.00;102858.75;5027718;28;10568;-69
2021/12/15 07:38:41;;;;;;;;;25.75;24.25;;;;;9.80;100.00;102863.16;5009499;28;10405;-70
2021/12/15 07:41:36;;;;;;;;;23.50;22.75;;;;;9.79;100.00;102867.72;5011666;28;11267;-70
2021/12/15 07:44:05;;;;;;;;;28.75;26.25;;;;;9.79;100.00;102854.19;5018044;28;10195;-70
2021/12/15 07:46:49;;;;;;;;;25.25;22.25;;;;;9.81;100.00;102859.47;5013983;28;10241;-70
2021/12/15 07:49:18;;;;;;;;;20.25;17.00;;;;;9.80;100.00;102872.13;5010793;28;10327;-70
2021/12/15 07:51:45;;;;;;;;;22.00;20.50;;;;;9.83;100.00;102865.59;5007802;28;10193;-70
2021/12/15 07:54:13;;;;;;;;;24.00;21.25;;;;;9.80;100.00;102855.91;5013255;28;10286;-70
2021/12/15 07:56:42;;;;;;;;;30.50;20.25;;;;;9.84;100.00;102856.50;5010410;28;10212;-70
2021/12/15 07:59:09;;;;;;;;;22.75;21.75;;;;;9.84;100.00;102860.06;5011586;28;10795;-71
2021/12/15 08:01:36;;;;;;;;;19.00;19.00;;;;;9.83;100.00;102862.91;5024117;28;10238;-70
2021/12/15 08:04:03;;;;;;;;;21.50;14.75;;;;;9.86;100.00;102862.63;5003094;28;10153;-70
2021/12/15 08:06:29;;;;;;;;;19.25;19.25;;;;;9.84;100.00;102864.59;5015285;28;9709;-70
2021/12/15 08:08:56;;;;;;;;;32.00;22.25;;;;;9.95;100.00;102869.09;4991905;28;10158;-70
2021/12/15 08:11:23;;;;;;;;;24.75;22.25;;;;;10.11;100.00;102874.84;4996248;28;10929;-70
2021/12/15 08:13:49;;;;;;;;;29.50;25.25;;;;;9.93;100.00;102876.50;5008735;28;10309;-70
2021/12/15 08:16:19;;;;;;;;;29.50;20.50;;;;;9.91;100.00;102884.72;5010614;28;10104;-70
2021/12/15 08:18:46;;;;;;;;;27.25;22.25;;;;;9.87;100.00;102886.84;4992324;28;9984;-70
2021/12/15 08:21:13;;;;;;;;;31.00;24.50;;;;;9.89;100.00;102889.41;4991258;28;10111;-69
2021/12/15 08:23:40;;;;;;;;;25.25;21.75;;;;;9.92;100.00;102886.47;5008470;28;10407;-69
2021/12/15 08:26:07;;;;;;;;;24.50;20.00;;;;;9.92;100.00;102883.75;5010862;28;10204;-70
2021/12/15 08:28:34;;;;;;;;;24.00;19.25;;;;;9.95;100.00;102878.06;4996636;28;10152;-69
2021/12/15 08:31:00;;;;;;;;;27.25;23.50;;;;;9.96;100.00;102873.50;5010576;28;10187;-69
2021/12/15 08:33:27;;;;;;;;;26.25;21.00;;;;;9.95;100.00;102878.06;5010268;28;10396;-70
2021/12/15 08:36:01;;;;;;;;;24.75;24.25;;;;;9.96;100.00;102885.19;5010475;28;10306;-70
2021/12/15 08:38:32;;;;;;;;;26.75;23.50;;;;;9.96;100.00;102884.34;5010247;28;10465;-70
2021/12/15 08:41:05;;;;;;;;;23.50;21.75;;;;;9.96;100.00;102882.47;5010648;28;11072;-69
2021/12/15 08:43:32;;;;;;;;;25.00;18.75;;;;;9.98;100.00;102883.19;5008710;28;10281;-69
2021/12/15 08:46:05;;;;;;;;;27.25;23.00;;;;;10.00;100.00;102885.78;5010303;28;9899;-70
2021/12/15 08:48:33;;;;;;;;;26.75;24.25;;;;;10.00;100.00;102885.78;4993505;28;10247;-69
2021/12/15 08:51:00;;;;;;;;;17.25;11.25;;;;;10.06;100.00;102880.66;4989456;28;10333;-70
2021/12/15 08:53:26;;;;;;;;;24.75;20.00;;;;;10.02;100.00;102879.22;5006536;28;10016;-70
2021/12/15 08:55:53;;;;;;;;;23.50;21.75;;;;;10.02;100.00;102883.78;5010384;28;10009;-70
2021/12/15 08:58:21;;;;;;;;;20.25;19.75;;;;;10.08;100.00;102891.34;5007445;28;10275;-70
2021/12/15 09:00:51;;;;;;;;;17.75;15.75;;;;;10.08;100.00;102889.50;5022332;28;10055;-69
2021/12/15 09:03:20;;;;;;;;;10.50;9.25;;;;;10.09;100.00;102893.94;5012984;28;9858;-70
2021/12/15 09:05:51;;;;;;;;;22.75;21.75;;;;;10.05;100.00;102895.19;5009515;28;10554;-69
2021/12/15 09:08:20;;;;;;;;;18.25;17.25;;;;;10.07;100.00;102892.34;5009552;28;10117;-70
2021/12/15 09:10:47;;;;;;;;;20.75;16.00;;;;;10.07;100.00;102898.63;5008723;28;10040;-70
2021/12/15 09:13:14;;;;;;;;;22.75;19.75;;;;;10.10;100.00;102905.59;5009449;28;9972;-70
2021/12/15 09:15:42;;;;;;;;;15.00;15.00;;;;;10.12;100.00;102909.03;5009763;28;10039;-70
2021/12/15 09:18:11;;;;;;;;;21.25;20.75;;;;;10.11;100.00;102901.91;5009017;28;9850;-70
2021/12/15 09:20:40;;;;;;;;;19.50;16.25;;;;;10.16;100.00;102905.06;5009509;28;9964;-69
2021/12/15 09:23:10;;;;;;;;;21.75;18.00;;;;;10.17;100.00;102902.25;4995000;28;10143;-69
2021/12/15 09:25:37;;;;;;;;;14.25;14.25;;;;;10.17;100.00;102909.50;4988564;28;10068;-69
2021/12/15 09:28:04;;;;;;;;;26.25;17.75;;;;;10.16;100.00;102910.47;5000888;28;9964;-72
2021/12/15 09:30:33;;;;;;;;;23.75;20.00;;;;;10.20;100.00;102913.78;5009585;28;10043;-69
2021/12/15 09:32:59;;;;;;;;;21.25;15.25;;;;;10.20;100.00;102916.50;5003163;28;10163;-68
2021/12/15 09:35:28;;;;;;;;;22.00;19.00;;;;;10.22;100.00;102922.66;5024699;28;10114;-69
2021/12/15 09:37:54;;;;;;;;;20.00;17.00;;;;;10.22;100.00;102918.09;4997914;28;10025;-69
2021/12/15 09:40:22;;;;;;;;;18.00;16.25;;;;;10.21;100.00;102920.94;4989983;28;10127;-70
2021/12/15 09:42:49;;;;;;;;;19.75;15.00;;;;;10.26;100.00;102926.81;5000257;28;9954;-69
2021/12/15 09:45:38;;;;;;;;;17.75;15.00;;;;;10.28;100.00;102933.81;5008043;28;10081;-68
2021/12/15 10:04:20;;;;;;;;;14.25;14.00;;;;;10.41;100.00;102936.28;5004347;28;10037;-71
2021/12/15 10:07:18;;;;;;;;;14.50;11.75;;;;;10.40;100.00;102942.66;5012027;28;9982;-69
2021/12/15 10:17:22;;;;;;;;;12.25;12.00;;;;;10.43;100.00;102945.13;5013597;28;9845;-69
2021/12/15 10:18:17;;;;;;;;;8.00;4.50;;;;;10.41;100.00;102942.56;5012691;28;9585;-69
2021/12/15 10:20:44;;;;;;;;;7.00;7.00;;;;;10.41;100.00;102952.53;5013535;28;9538;-69
2021/12/15 10:23:15;;;;;;;;;10.00;9.25;;;;;10.42;99.59;102954.25;5012994;28;9655;-70
2021/12/15 10:25:49;;;;;;;;;7.00;7.00;;;;;10.42;98.92;102949.69;5012396;28;10479;-69
2021/12/15 10:28:27;;;;;;;;;7.75;7.50;;;;;10.43;98.30;102954.13;5027940;28;9704;-70
2021/12/15 10:31:03;;;;;;;;;8.50;5.00;;;;;10.42;98.27;102955.09;5013440;28;10399;-70
2021/12/15 10:33:38;;;;;;;;;6.25;5.00;;;;;10.47;97.90;102952.84;5012810;28;9641;-69
2021/12/15 10:36:12;;;;;;;;;7.50;7.50;;;;;10.47;97.08;102960.09;4999947;28;10326;-69
2021/12/15 10:38:48;;;;;;;;;3.33;3.33;;;;;10.42;96.09;102949.69;4993010;28;9544;-69
2021/12/15 10:41:24;;;;;;;;;3.50;3.50;;;;;10.46;95.42;102955.69;5010847;28;9369;-69
2021/12/15 10:44:21;;;;;;;;;5.00;5.00;;;;;10.48;94.67;102951.84;5012336;28;9681;-69
2021/12/15 10:46:54;;;;;;;;;3.25;3.25;;;;;10.52;94.63;102959.69;5012335;28;9482;-71
2021/12/15 10:49:24;;;;;;;;;4.00;4.00;;;;;10.52;94.14;102959.69;5004381;28;9507;-69
2021/12/15 10:51:53;;;;;;;;;6.33;2.00;;;;;10.51;93.60;102958.84;4999086;28;9470;-71
2021/12/15 10:54:23;;;;;;;;;4.00;4.00;;;;;10.56;93.34;102963.84;5010760;28;9249;-71
2021/12/15 10:56:58;;;;;;;;;6.25;5.25;;;;;10.52;91.96;102960.56;5012533;28;9531;-71
2021/12/15 10:59:27;;;;;;;;;2.00;2.00;;;;;10.52;91.08;102959.69;5011684;28;9709;-68
2021/12/15 11:02:07;;;;;;;;;2.00;2.00;;;;;10.54;90.94;102960.41;5012476;28;9461;-71
2021/12/15 11:05:05;;;;;;;;;2.50;2.50;;;;;10.52;89.75;102956.97;4993111;28;9422;-68
2021/12/15 11:07:40;;;;;;;;;5.50;3.75;;;;;10.45;89.30;102951.25;5007144;28;9551;-71
2021/12/15 11:10:37;;;;;;;;;3.00;3.00;;;;;10.52;89.44;102956.97;5011688;28;10283;-71
2021/12/15 11:13:11;;;;;;;;;4.00;3.00;;;;;10.57;89.50;102962.84;4998827;28;9472;-71
2021/12/15 11:15:43;;;;;;;;;4.00;1.50;;;;;10.58;89.63;102965.41;5010921;28;9456;-70
2021/12/15 11:18:16;;;;;;;;;2.50;2.50;;;;;10.53;88.73;102967.69;5011549;28;9295;-68
2021/12/15 11:20:56;;;;;;;;;2.00;2.00;;;;;10.53;89.02;102964.97;5011849;28;9540;-70
2021/12/15 11:23:25;;;;;;;;;2.75;2.75;;;;;10.58;89.66;102964.56;5011747;28;10148;-71
2021/12/15 11:25:57;;;;;;;;;6.00;4.00;;;;;10.57;89.62;102966.41;5011981;28;9506;-71
2021/12/15 11:28:43;;;;;;;;;6.25;5.00;;;;;10.56;89.48;102961.13;5011348;28;9495;-69
2021/12/15 11:31:21;;;;;;;;;3.00;3.00;;;;;10.58;89.53;102961.84;5002083;28;9387;-69
2021/12/15 11:34:00;;;;;;;;;2.50;2.00;;;;;10.57;89.86;102961.00;4992389;28;9495;-69
2021/12/15 11:36:31;;;;;;;;;3.00;3.00;;;;;10.60;89.37;102959.84;4991106;28;9490;-68
2021/12/15 11:39:08;;;;;;;;;0.67;0.67;;;;;10.64;89.99;102961.28;4992275;28;9466;-70
2021/12/15 11:41:40;;;;;;;;;5.00;2.67;;;;;10.65;89.45;102952.16;5002333;28;9236;-70
2021/12/15 11:44:13;;;;;;;;;9.00;4.00;;;;;10.64;89.19;102966.72;5011522;28;9399;-70
2021/12/15 11:46:52;;;;;;;;;1.00;1.00;;;;;10.65;89.42;102966.56;5011699;28;9698;-69
2021/12/15 11:49:23;;;;;;;;;4.00;2.50;;;;;10.85;90.92;102959.38;5011013;28;9422;-70
2021/12/15 11:51:57;;;;;;;;;2.75;2.75;;;;;10.70;88.56;102961.63;5011554;28;9471;-69
2021/12/15 11:54:44;;;;;;;;;2.25;2.00;;;;;10.64;86.82;102959.44;5011566;28;10254;-70
2021/12/15 11:57:18;;;;;;;;;5.25;1.25;;;;;10.61;85.68;102948.88;5010973;28;9371;-70
2021/12/15 11:59:49;;;;;;;;;2.25;2.25;;;;;10.58;83.67;102949.16;5008983;28;9460;-70
2021/12/15 12:02:28;;;;;;;;;0.00;0.00;;;;;10.60;82.46;102941.75;5011298;28;9459;-70
2021/12/15 12:05:19;;;;;;;;;1.00;1.00;;;;;10.63;82.56;102957.72;5011126;28;9605;-70
2021/12/15 12:07:49;;;;;;;;;5.00;2.00;;;;;10.65;82.07;102953.03;5002707;28;9935;-70
2021/12/15 12:10:26;;;;;;;;;1.00;1.00;;;;;10.68;82.29;102955.50;5010953;28;9320;-70
2021/12/15 12:13:20;;;;;;;;;2.00;2.00;;;;;10.68;82.12;102955.50;5010914;28;9345;-70
2021/12/15 12:15:51;;;;;;;;;1.67;1.00;;;;;10.63;80.25;102943.31;5011140;28;9313;-70
2021/12/15 12:18:22;;;;;;;;;0.33;0.33;;;;;10.65;80.65;102942.19;5009607;28;9248;-70
2021/12/15 12:20:53;;;;;;;;;0.33;0.00;;;;;10.60;79.92;102939.03;5011113;28;9886;-69
2021/12/15 12:23:24;;;;;;;;;1.00;0.00;;;;;10.63;79.78;102935.19;5011068;28;9336;-70
2021/12/15 12:25:55;;;;;;;;;1.00;1.00;;;;;10.61;79.41;102940.75;5010595;28;10038;-70
2021/12/15 12:28:26;;;;;;;;;0.00;0.00;;;;;10.61;78.82;102938.03;5010607;28;9237;-69
2021/12/15 12:31:00;;;;;;;;;0.33;0.33;;;;;10.64;80.20;102937.75;5006825;28;9388;-70
2021/12/15 12:33:29;;;;;;;;;1.00;1.00;;;;;10.66;80.45;102937.66;4990971;28;9374;-70